sensor_id;sensor_type;location;lat;lon;timestamp;temperature;humidity
17567;DHT22;8901;52.088;5.084;2022-08-19T00:05:07;23.00;99.90
17567;DHT22;8901;52.088;5.084;2022-08-19T00:29:47;22.30;99.90
17567;DHT22;8901;52.088;5.084;2022-08-19T00:35:36;22.10;99.90
17567;DHT22;8901;52.088;5.084;2022-08-19T00:41:25;22.10;99.90
17567;DHT22;8901;52.088;5.084;2022-08-19T00:47:22;22.00;99.90
17567;DHT22;8901;52.088;5.084;2022-08-19T00:56:33;22.10;99.90
17567;DHT22;8901;52.088;5.084;2022-08-19T01:05:46;21.80;99.90
17567;DHT22;8901;52.088;5.084;2022-08-19T01:15:13;21.80;99.90
17567;DHT22;8901;52.088;5.084;2022-08-19T01:35:34;21.80;99.90
17567;DHT22;8901;52.088;5.084;2022-08-19T01:41:27;21.60;99.90
17567;DHT22;8901;52.088;5.084;2022-08-19T01:50:47;21.50;99.90
17567;DHT22;8901;52.088;5.084;2022-08-19T01:56:36;21.30;99.90
17567;DHT22;8901;52.088;5.084;2022-08-19T02:02:25;21.30;99.90
17567;DHT22;8901;52.088;5.084;2022-08-19T02:08:15;21.50;99.90
17567;DHT22;8901;52.088;5.084;2022-08-19T02:17:27;21.40;99.90
17567;DHT22;8901;52.088;5.084;2022-08-19T02:23:17;21.20;99.90
17567;DHT22;8901;52.088;5.084;2022-08-19T02:42:56;21.00;99.90
17567;DHT22;8901;52.088;5.084;2022-08-19T02:48:46;21.20;99.90
17567;DHT22;8901;52.088;5.084;2022-08-19T02:54:35;21.10;99.90
17567;DHT22;8901;52.088;5.084;2022-08-19T03:04:05;21.20;99.90
17567;DHT22;8901;52.088;5.084;2022-08-19T03:10:21;21.20;99.90
17567;DHT22;8901;52.088;5.084;2022-08-19T03:16:11;21.10;99.90
17567;DHT22;8901;52.088;5.084;2022-08-19T03:22:02;21.00;99.90
17567;DHT22;8901;52.088;5.084;2022-08-19T03:27:52;21.10;99.90
17567;DHT22;8901;52.088;5.084;2022-08-19T03:33:40;21.40;99.90
17567;DHT22;8901;52.088;5.084;2022-08-19T03:39:30;21.30;99.90
17567;DHT22;8901;52.088;5.084;2022-08-19T03:45:19;21.10;99.90
17567;DHT22;8901;52.088;5.084;2022-08-19T03:51:16;21.10;99.90
17567;DHT22;8901;52.088;5.084;2022-08-19T03:57:07;21.20;99.90
17567;DHT22;8901;52.088;5.084;2022-08-19T04:02:56;21.00;99.90
17567;DHT22;8901;52.088;5.084;2022-08-19T04:12:08;21.10;99.90
17567;DHT22;8901;52.088;5.084;2022-08-19T04:17:56;21.10;99.90
17567;DHT22;8901;52.088;5.084;2022-08-19T04:23:46;21.00;99.90
17567;DHT22;8901;52.088;5.084;2022-08-19T04:29:36;21.10;99.90
17567;DHT22;8901;52.088;5.084;2022-08-19T04:50:12;21.20;99.90
17567;DHT22;8901;52.088;5.084;2022-08-19T04:56:32;21.20;99.90
17567;DHT22;8901;52.088;5.084;2022-08-19T05:05:45;21.30;99.90
17567;DHT22;8901;52.088;5.084;2022-08-19T05:11:37;21.40;99.90
17567;DHT22;8901;52.088;5.084;2022-08-19T05:17:27;21.40;99.90
17567;DHT22;8901;52.088;5.084;2022-08-19T05:23:17;21.30;99.90
17567;DHT22;8901;52.088;5.084;2022-08-19T05:29:07;21.30;99.90
17567;DHT22;8901;52.088;5.084;2022-08-19T05:34:56;21.30;99.90
17567;DHT22;8901;52.088;5.084;2022-08-19T05:40:46;21.30;99.90
17567;DHT22;8901;52.088;5.084;2022-08-19T05:50:12;21.40;99.90
17567;DHT22;8901;52.088;5.084;2022-08-19T05:56:06;21.60;99.90
17567;DHT22;8901;52.088;5.084;2022-08-19T06:01:54;21.60;99.90
17567;DHT22;8901;52.088;5.084;2022-08-19T06:07:43;21.40;99.90
17567;DHT22;8901;52.088;5.084;2022-08-19T06:13:34;21.60;99.90
17567;DHT22;8901;52.088;5.084;2022-08-19T06:19:23;21.60;99.90
17567;DHT22;8901;52.088;5.084;2022-08-19T06:28:35;21.70;99.90
17567;DHT22;8901;52.088;5.084;2022-08-19T06:34:34;21.50;99.90
17567;DHT22;8901;52.088;5.084;2022-08-19T06:40:50;21.70;99.90
17567;DHT22;8901;52.088;5.084;2022-08-19T06:50:09;21.60;99.90
17567;DHT22;8901;52.088;5.084;2022-08-19T06:55:58;21.40;99.90
17567;DHT22;8901;52.088;5.084;2022-08-19T07:01:52;21.50;99.90
17567;DHT22;8901;52.088;5.084;2022-08-19T07:07:42;21.60;99.90
17567;DHT22;8901;52.088;5.084;2022-08-19T07:13:31;21.80;99.90
17567;DHT22;8901;52.088;5.084;2022-08-19T07:19:25;21.70;99.90
17567;DHT22;8901;52.088;5.084;2022-08-19T07:25:16;21.60;99.90
17567;DHT22;8901;52.088;5.084;2022-08-19T07:31:06;21.70;99.90
17567;DHT22;8901;52.088;5.084;2022-08-19T07:36:55;21.60;99.90
17567;DHT22;8901;52.088;5.084;2022-08-19T07:42:46;21.60;99.90
17567;DHT22;8901;52.088;5.084;2022-08-19T07:52:22;21.80;99.90
17567;DHT22;8901;52.088;5.084;2022-08-19T08:04:39;22.00;99.90
17567;DHT22;8901;52.088;5.084;2022-08-19T08:11:19;22.10;99.90
17567;DHT22;8901;52.088;5.084;2022-08-19T08:17:08;21.90;99.90
17567;DHT22;8901;52.088;5.084;2022-08-19T08:22:58;22.10;99.90
17567;DHT22;8901;52.088;5.084;2022-08-19T08:35:55;22.10;99.90
17567;DHT22;8901;52.088;5.084;2022-08-19T08:41:50;22.10;99.90
17567;DHT22;8901;52.088;5.084;2022-08-19T08:47:43;22.30;99.90
17567;DHT22;8901;52.088;5.084;2022-08-19T08:53:34;22.40;99.90
17567;DHT22;8901;52.088;5.084;2022-08-19T08:59:29;22.20;99.90
17567;DHT22;8901;52.088;5.084;2022-08-19T09:05:20;22.50;99.90
17567;DHT22;8901;52.088;5.084;2022-08-19T09:11:15;22.50;99.90
17567;DHT22;8901;52.088;5.084;2022-08-19T09:17:26;22.60;99.90
17567;DHT22;8901;52.088;5.084;2022-08-19T09:26:39;22.60;99.90
17567;DHT22;8901;52.088;5.084;2022-08-19T09:32:32;22.70;99.90
17567;DHT22;8901;52.088;5.084;2022-08-19T09:41:42;22.80;99.90
17567;DHT22;8901;52.088;5.084;2022-08-19T09:47:32;22.90;99.90
17567;DHT22;8901;52.088;5.084;2022-08-19T09:56:45;23.00;99.90
17567;DHT22;8901;52.088;5.084;2022-08-19T10:02:36;23.10;99.90
17567;DHT22;8901;52.088;5.084;2022-08-19T10:11:47;23.20;99.90
17567;DHT22;8901;52.088;5.084;2022-08-19T10:17:38;23.30;99.90
17567;DHT22;8901;52.088;5.084;2022-08-19T10:20:06;23.30;99.90
17567;DHT22;8901;52.088;5.084;2022-08-19T10:22:33;23.40;99.90
17567;DHT22;8901;52.088;5.084;2022-08-19T10:25:01;23.40;99.90
17567;DHT22;8901;52.088;5.084;2022-08-19T10:27:28;23.50;99.90
17567;DHT22;8901;52.088;5.084;2022-08-19T10:29:56;23.50;99.90
17567;DHT22;8901;52.088;5.084;2022-08-19T10:32:22;23.60;99.90
17567;DHT22;8901;52.088;5.084;2022-08-19T10:34:52;23.60;99.90
17567;DHT22;8901;52.088;5.084;2022-08-19T10:37:19;23.60;99.90
17567;DHT22;8901;52.088;5.084;2022-08-19T10:39:46;23.70;99.90
17567;DHT22;8901;52.088;5.084;2022-08-19T10:42:14;23.70;99.90
17567;DHT22;8901;52.088;5.084;2022-08-19T10:44:44;23.70;99.90
17567;DHT22;8901;52.088;5.084;2022-08-19T10:47:12;23.70;99.90
17567;DHT22;8901;52.088;5.084;2022-08-19T10:49:39;23.80;99.90
17567;DHT22;8901;52.088;5.084;2022-08-19T10:52:21;23.70;99.90
17567;DHT22;8901;52.088;5.084;2022-08-19T10:55:01;23.70;99.90
17567;DHT22;8901;52.088;5.084;2022-08-19T10:57:45;23.80;99.90
17567;DHT22;8901;52.088;5.084;2022-08-19T11:00:13;23.80;99.90
17567;DHT22;8901;52.088;5.084;2022-08-19T11:02:40;23.80;99.90
17567;DHT22;8901;52.088;5.084;2022-08-19T11:05:08;23.80;99.90
17567;DHT22;8901;52.088;5.084;2022-08-19T11:07:38;23.80;99.90
17567;DHT22;8901;52.088;5.084;2022-08-19T11:10:05;23.90;99.90
17567;DHT22;8901;52.088;5.084;2022-08-19T11:12:32;23.90;99.90
17567;DHT22;8901;52.088;5.084;2022-08-19T11:14:59;23.90;99.90
17567;DHT22;8901;52.088;5.084;2022-08-19T11:17:27;23.90;99.90
17567;DHT22;8901;52.088;5.084;2022-08-19T11:19:57;23.90;99.90
17567;DHT22;8901;52.088;5.084;2022-08-19T11:22:24;23.80;99.90
17567;DHT22;8901;52.088;5.084;2022-08-19T11:24:53;23.90;99.90
17567;DHT22;8901;52.088;5.084;2022-08-19T11:27:20;23.90;99.90
17567;DHT22;8901;52.088;5.084;2022-08-19T11:29:47;23.90;99.90
17567;DHT22;8901;52.088;5.084;2022-08-19T11:32:14;23.90;99.90
17567;DHT22;8901;52.088;5.084;2022-08-19T11:34:41;24.00;99.90
17567;DHT22;8901;52.088;5.084;2022-08-19T11:37:08;24.10;99.90
17567;DHT22;8901;52.088;5.084;2022-08-19T11:39:36;24.00;99.90
17567;DHT22;8901;52.088;5.084;2022-08-19T11:42:05;24.10;99.90
17567;DHT22;8901;52.088;5.084;2022-08-19T11:44:53;24.10;99.90
17567;DHT22;8901;52.088;5.084;2022-08-19T11:47:20;24.10;99.90
17567;DHT22;8901;52.088;5.084;2022-08-19T11:49:47;24.00;99.90
17567;DHT22;8901;52.088;5.084;2022-08-19T11:52:14;24.10;99.90
17567;DHT22;8901;52.088;5.084;2022-08-19T11:54:41;24.10;99.90
17567;DHT22;8901;52.088;5.084;2022-08-19T11:57:09;24.00;99.90
17567;DHT22;8901;52.088;5.084;2022-08-19T11:59:36;23.90;99.90
17567;DHT22;8901;52.088;5.084;2022-08-19T12:02:10;24.00;99.90
17567;DHT22;8901;52.088;5.084;2022-08-19T12:04:39;24.10;99.90
17567;DHT22;8901;52.088;5.084;2022-08-19T12:07:05;24.10;99.90
17567;DHT22;8901;52.088;5.084;2022-08-19T12:09:33;24.10;99.90
17567;DHT22;8901;52.088;5.084;2022-08-19T12:12:00;24.20;99.90
17567;DHT22;8901;52.088;5.084;2022-08-19T12:14:28;24.20;99.90
17567;DHT22;8901;52.088;5.084;2022-08-19T12:16:57;24.20;99.90
17567;DHT22;8901;52.088;5.084;2022-08-19T12:19:24;24.10;99.90
17567;DHT22;8901;52.088;5.084;2022-08-19T12:21:51;24.20;99.90
17567;DHT22;8901;52.088;5.084;2022-08-19T12:24:20;24.20;99.90
17567;DHT22;8901;52.088;5.084;2022-08-19T12:26:48;24.20;99.90
17567;DHT22;8901;52.088;5.084;2022-08-19T12:29:15;24.30;99.90
17567;DHT22;8901;52.088;5.084;2022-08-19T12:31:43;24.20;99.90
17567;DHT22;8901;52.088;5.084;2022-08-19T12:34:11;24.30;99.90
17567;DHT22;8901;52.088;5.084;2022-08-19T12:36:38;24.30;99.90
17567;DHT22;8901;52.088;5.084;2022-08-19T12:39:05;24.30;99.90
17567;DHT22;8901;52.088;5.084;2022-08-19T12:41:33;24.20;99.90
17567;DHT22;8901;52.088;5.084;2022-08-19T12:44:00;24.30;99.90
17567;DHT22;8901;52.088;5.084;2022-08-19T12:46:27;24.30;99.90
17567;DHT22;8901;52.088;5.084;2022-08-19T12:48:56;24.20;99.90
17567;DHT22;8901;52.088;5.084;2022-08-19T12:51:23;24.20;99.90
17567;DHT22;8901;52.088;5.084;2022-08-19T12:53:50;24.20;99.90
17567;DHT22;8901;52.088;5.084;2022-08-19T12:56:17;24.30;99.90
17567;DHT22;8901;52.088;5.084;2022-08-19T12:58:44;24.30;99.90
17567;DHT22;8901;52.088;5.084;2022-08-19T13:01:15;24.20;99.90
17567;DHT22;8901;52.088;5.084;2022-08-19T13:03:44;24.40;99.90
17567;DHT22;8901;52.088;5.084;2022-08-19T13:06:13;24.30;99.90
17567;DHT22;8901;52.088;5.084;2022-08-19T13:08:41;24.30;99.90
17567;DHT22;8901;52.088;5.084;2022-08-19T13:11:10;24.20;99.90
17567;DHT22;8901;52.088;5.084;2022-08-19T13:13:38;24.20;99.90
17567;DHT22;8901;52.088;5.084;2022-08-19T13:16:07;23.90;99.90
17567;DHT22;8901;52.088;5.084;2022-08-19T13:18:34;23.80;99.90
17567;DHT22;8901;52.088;5.084;2022-08-19T13:21:03;24.10;99.90
17567;DHT22;8901;52.088;5.084;2022-08-19T13:23:32;24.20;99.90
17567;DHT22;8901;52.088;5.084;2022-08-19T13:26:01;24.10;99.90
17567;DHT22;8901;52.088;5.084;2022-08-19T13:28:28;24.20;99.90
17567;DHT22;8901;52.088;5.084;2022-08-19T13:31:16;24.20;99.90
17567;DHT22;8901;52.088;5.084;2022-08-19T13:34:01;24.20;99.90
17567;DHT22;8901;52.088;5.084;2022-08-19T13:36:29;24.20;99.90
17567;DHT22;8901;52.088;5.084;2022-08-19T13:38:57;24.20;99.90
17567;DHT22;8901;52.088;5.084;2022-08-19T13:41:24;24.20;99.90
17567;DHT22;8901;52.088;5.084;2022-08-19T13:43:52;24.20;99.90
17567;DHT22;8901;52.088;5.084;2022-08-19T13:46:19;24.10;99.90
17567;DHT22;8901;52.088;5.084;2022-08-19T13:48:46;24.10;99.90
17567;DHT22;8901;52.088;5.084;2022-08-19T13:51:14;24.10;99.90
17567;DHT22;8901;52.088;5.084;2022-08-19T13:53:42;24.10;99.90
17567;DHT22;8901;52.088;5.084;2022-08-19T13:56:14;24.20;99.90
17567;DHT22;8901;52.088;5.084;2022-08-19T13:58:41;24.10;99.90
17567;DHT22;8901;52.088;5.084;2022-08-19T14:01:08;24.20;99.90
17567;DHT22;8901;52.088;5.084;2022-08-19T14:03:35;24.10;99.90
17567;DHT22;8901;52.088;5.084;2022-08-19T14:06:03;24.10;99.90
17567;DHT22;8901;52.088;5.084;2022-08-19T14:08:30;24.00;99.90
17567;DHT22;8901;52.088;5.084;2022-08-19T14:10:57;24.10;99.90
17567;DHT22;8901;52.088;5.084;2022-08-19T14:13:25;24.20;99.90
17567;DHT22;8901;52.088;5.084;2022-08-19T14:15:52;24.10;99.90
17567;DHT22;8901;52.088;5.084;2022-08-19T14:18:20;24.00;99.90
17567;DHT22;8901;52.088;5.084;2022-08-19T14:20:46;24.10;99.90
17567;DHT22;8901;52.088;5.084;2022-08-19T14:23:13;24.00;99.90
17567;DHT22;8901;52.088;5.084;2022-08-19T14:25:40;23.90;99.90
17567;DHT22;8901;52.088;5.084;2022-08-19T14:28:09;24.00;99.90
17567;DHT22;8901;52.088;5.084;2022-08-19T14:30:38;23.90;99.90
17567;DHT22;8901;52.088;5.084;2022-08-19T14:33:05;24.00;99.90
17567;DHT22;8901;52.088;5.084;2022-08-19T14:35:34;23.90;99.90
17567;DHT22;8901;52.088;5.084;2022-08-19T14:38:01;23.90;99.90
17567;DHT22;8901;52.088;5.084;2022-08-19T14:40:30;23.90;99.90
17567;DHT22;8901;52.088;5.084;2022-08-19T14:42:59;23.90;99.90
17567;DHT22;8901;52.088;5.084;2022-08-19T14:45:29;23.80;99.90
17567;DHT22;8901;52.088;5.084;2022-08-19T14:51:06;24.00;99.90
17567;DHT22;8901;52.088;5.084;2022-08-19T14:53:33;24.10;99.90
17567;DHT22;8901;52.088;5.084;2022-08-19T14:56:11;24.10;99.90
17567;DHT22;8901;52.088;5.084;2022-08-19T14:58:39;24.10;99.90
17567;DHT22;8901;52.088;5.084;2022-08-19T15:01:07;24.20;99.90
17567;DHT22;8901;52.088;5.084;2022-08-19T15:03:37;24.20;99.90
17567;DHT22;8901;52.088;5.084;2022-08-19T15:06:08;24.20;99.90
17567;DHT22;8901;52.088;5.084;2022-08-19T15:08:37;24.10;99.90
17567;DHT22;8901;52.088;5.084;2022-08-19T15:11:08;24.20;99.90
17567;DHT22;8901;52.088;5.084;2022-08-19T15:13:36;24.20;99.90
17567;DHT22;8901;52.088;5.084;2022-08-19T15:16:05;24.20;99.90
17567;DHT22;8901;52.088;5.084;2022-08-19T15:18:32;24.30;99.90
17567;DHT22;8901;52.088;5.084;2022-08-19T15:21:01;24.30;99.90
17567;DHT22;8901;52.088;5.084;2022-08-19T15:23:30;24.30;99.90
17567;DHT22;8901;52.088;5.084;2022-08-19T15:25:57;24.30;99.90
17567;DHT22;8901;52.088;5.084;2022-08-19T15:28:25;24.30;99.90
17567;DHT22;8901;52.088;5.084;2022-08-19T15:30:52;24.20;99.90
17567;DHT22;8901;52.088;5.084;2022-08-19T15:33:19;24.20;99.90
17567;DHT22;8901;52.088;5.084;2022-08-19T15:35:47;24.20;99.90
17567;DHT22;8901;52.088;5.084;2022-08-19T15:38:16;24.20;99.90
17567;DHT22;8901;52.088;5.084;2022-08-19T15:40:48;24.10;99.90
17567;DHT22;8901;52.088;5.084;2022-08-19T15:43:15;24.20;99.90
17567;DHT22;8901;52.088;5.084;2022-08-19T15:45:43;24.20;99.90
17567;DHT22;8901;52.088;5.084;2022-08-19T15:48:10;24.20;99.90
17567;DHT22;8901;52.088;5.084;2022-08-19T15:50:46;24.30;99.90
17567;DHT22;8901;52.088;5.084;2022-08-19T15:53:13;24.30;99.90
17567;DHT22;8901;52.088;5.084;2022-08-19T15:56:00;24.30;99.90
17567;DHT22;8901;52.088;5.084;2022-08-19T15:58:28;24.30;99.90
17567;DHT22;8901;52.088;5.084;2022-08-19T16:01:12;24.30;99.90
17567;DHT22;8901;52.088;5.084;2022-08-19T16:04:01;24.30;99.90
17567;DHT22;8901;52.088;5.084;2022-08-19T16:06:46;24.30;99.90
17567;DHT22;8901;52.088;5.084;2022-08-19T16:09:15;24.30;99.90
17567;DHT22;8901;52.088;5.084;2022-08-19T16:11:46;24.30;99.90
17567;DHT22;8901;52.088;5.084;2022-08-19T16:14:13;24.30;99.90
17567;DHT22;8901;52.088;5.084;2022-08-19T16:16:40;24.20;99.90
17567;DHT22;8901;52.088;5.084;2022-08-19T16:19:13;24.30;99.90
17567;DHT22;8901;52.088;5.084;2022-08-19T16:21:42;24.30;99.90
17567;DHT22;8901;52.088;5.084;2022-08-19T16:24:10;24.30;99.90
17567;DHT22;8901;52.088;5.084;2022-08-19T16:26:38;24.20;99.90
17567;DHT22;8901;52.088;5.084;2022-08-19T16:29:07;24.10;99.90
17567;DHT22;8901;52.088;5.084;2022-08-19T16:31:34;24.10;99.90
17567;DHT22;8901;52.088;5.084;2022-08-19T16:34:02;24.20;99.90
17567;DHT22;8901;52.088;5.084;2022-08-19T16:36:32;24.10;99.90
17567;DHT22;8901;52.088;5.084;2022-08-19T16:39:00;24.20;99.90
17567;DHT22;8901;52.088;5.084;2022-08-19T16:41:27;24.20;99.90
17567;DHT22;8901;52.088;5.084;2022-08-19T16:47:05;23.80;99.90
17567;DHT22;8901;52.088;5.084;2022-08-19T16:49:32;24.00;99.90
17567;DHT22;8901;52.088;5.084;2022-08-19T16:51:59;24.00;99.90
17567;DHT22;8901;52.088;5.084;2022-08-19T16:54:27;23.80;99.90
17567;DHT22;8901;52.088;5.084;2022-08-19T16:56:54;23.80;99.90
17567;DHT22;8901;52.088;5.084;2022-08-19T16:59:20;23.40;99.90
17567;DHT22;8901;52.088;5.084;2022-08-19T17:01:48;23.40;99.90
17567;DHT22;8901;52.088;5.084;2022-08-19T17:04:18;23.40;99.90
17567;DHT22;8901;52.088;5.084;2022-08-19T17:06:45;23.70;99.90
17567;DHT22;8901;52.088;5.084;2022-08-19T17:09:12;23.70;99.90
17567;DHT22;8901;52.088;5.084;2022-08-19T17:11:40;23.80;99.90
17567;DHT22;8901;52.088;5.084;2022-08-19T17:14:07;23.80;99.90
17567;DHT22;8901;52.088;5.084;2022-08-19T17:16:35;23.90;99.90
17567;DHT22;8901;52.088;5.084;2022-08-19T17:19:06;23.70;99.90
17567;DHT22;8901;52.088;5.084;2022-08-19T17:21:36;23.60;99.90
17567;DHT22;8901;52.088;5.084;2022-08-19T17:24:05;23.70;99.90
17567;DHT22;8901;52.088;5.084;2022-08-19T17:26:35;23.50;99.90
17567;DHT22;8901;52.088;5.084;2022-08-19T17:29:03;23.40;99.90
17567;DHT22;8901;52.088;5.084;2022-08-19T17:31:31;23.30;99.90
17567;DHT22;8901;52.088;5.084;2022-08-19T17:33:59;23.30;99.90
17567;DHT22;8901;52.088;5.084;2022-08-19T17:36:28;23.60;99.90
17567;DHT22;8901;52.088;5.084;2022-08-19T17:38:57;23.40;99.90
17567;DHT22;8901;52.088;5.084;2022-08-19T17:41:27;23.40;99.90
17567;DHT22;8901;52.088;5.084;2022-08-19T17:43:55;23.30;99.90
17567;DHT22;8901;52.088;5.084;2022-08-19T17:46:22;23.20;99.90
17567;DHT22;8901;52.088;5.084;2022-08-19T17:48:51;23.10;99.90
17567;DHT22;8901;52.088;5.084;2022-08-19T17:51:21;23.20;99.90
17567;DHT22;8901;52.088;5.084;2022-08-19T17:53:49;23.10;99.90
17567;DHT22;8901;52.088;5.084;2022-08-19T17:56:18;23.00;99.90
17567;DHT22;8901;52.088;5.084;2022-08-19T17:58:45;23.30;99.90
17567;DHT22;8901;52.088;5.084;2022-08-19T18:01:13;23.50;99.90
17567;DHT22;8901;52.088;5.084;2022-08-19T18:03:40;23.50;99.90
17567;DHT22;8901;52.088;5.084;2022-08-19T18:06:08;23.50;99.90
17567;DHT22;8901;52.088;5.084;2022-08-19T18:08:36;23.60;99.90
17567;DHT22;8901;52.088;5.084;2022-08-19T18:11:04;23.60;99.90
17567;DHT22;8901;52.088;5.084;2022-08-19T18:13:34;23.50;99.90
17567;DHT22;8901;52.088;5.084;2022-08-19T18:16:01;23.40;99.90
17567;DHT22;8901;52.088;5.084;2022-08-19T18:18:28;23.50;99.90
17567;DHT22;8901;52.088;5.084;2022-08-19T18:20:55;23.60;99.90
17567;DHT22;8901;52.088;5.084;2022-08-19T18:23:22;23.50;99.90
17567;DHT22;8901;52.088;5.084;2022-08-19T18:25:49;23.50;99.90
17567;DHT22;8901;52.088;5.084;2022-08-19T18:28:19;23.60;99.90
17567;DHT22;8901;52.088;5.084;2022-08-19T18:30:51;23.60;99.90
17567;DHT22;8901;52.088;5.084;2022-08-19T18:33:21;23.50;99.90
17567;DHT22;8901;52.088;5.084;2022-08-19T18:35:50;23.50;99.90
17567;DHT22;8901;52.088;5.084;2022-08-19T18:38:19;23.60;99.90
17567;DHT22;8901;52.088;5.084;2022-08-19T18:41:05;23.50;99.90
17567;DHT22;8901;52.088;5.084;2022-08-19T18:43:54;23.30;99.90
17567;DHT22;8901;52.088;5.084;2022-08-19T18:46:40;23.50;99.90
17567;DHT22;8901;52.088;5.084;2022-08-19T18:49:33;23.40;99.90
17567;DHT22;8901;52.088;5.084;2022-08-19T18:52:14;23.20;99.90
17567;DHT22;8901;52.088;5.084;2022-08-19T18:54:41;23.40;99.90
17567;DHT22;8901;52.088;5.084;2022-08-19T18:57:11;23.30;99.90
17567;DHT22;8901;52.088;5.084;2022-08-19T18:59:53;23.50;99.90
17567;DHT22;8901;52.088;5.084;2022-08-19T19:02:22;23.50;99.90
17567;DHT22;8901;52.088;5.084;2022-08-19T19:04:49;23.50;99.90
17567;DHT22;8901;52.088;5.084;2022-08-19T19:07:17;23.40;99.90
17567;DHT22;8901;52.088;5.084;2022-08-19T19:09:44;23.30;99.90
17567;DHT22;8901;52.088;5.084;2022-08-19T19:12:12;23.40;99.90
17567;DHT22;8901;52.088;5.084;2022-08-19T19:14:42;23.40;99.90
17567;DHT22;8901;52.088;5.084;2022-08-19T19:17:13;23.30;99.90
17567;DHT22;8901;52.088;5.084;2022-08-19T19:19:43;23.10;99.90
17567;DHT22;8901;52.088;5.084;2022-08-19T19:22:12;22.90;99.90
17567;DHT22;8901;52.088;5.084;2022-08-19T19:24:40;22.80;99.90
17567;DHT22;8901;52.088;5.084;2022-08-19T19:27:10;23.00;99.90
17567;DHT22;8901;52.088;5.084;2022-08-19T19:29:38;23.20;99.90
17567;DHT22;8901;52.088;5.084;2022-08-19T19:32:07;23.30;99.90
17567;DHT22;8901;52.088;5.084;2022-08-19T19:34:36;23.00;99.90
17567;DHT22;8901;52.088;5.084;2022-08-19T19:37:05;22.80;99.90
17567;DHT22;8901;52.088;5.084;2022-08-19T19:39:32;22.60;99.90
17567;DHT22;8901;52.088;5.084;2022-08-19T19:41:59;22.50;99.90
17567;DHT22;8901;52.088;5.084;2022-08-19T19:44:26;22.60;99.90
17567;DHT22;8901;52.088;5.084;2022-08-19T19:46:54;22.70;99.90
17567;DHT22;8901;52.088;5.084;2022-08-19T19:49:24;22.60;99.90
17567;DHT22;8901;52.088;5.084;2022-08-19T19:51:51;22.50;99.90
17567;DHT22;8901;52.088;5.084;2022-08-19T19:54:20;22.60;99.90
17567;DHT22;8901;52.088;5.084;2022-08-19T19:56:47;22.70;99.90
17567;DHT22;8901;52.088;5.084;2022-08-19T19:59:15;22.60;99.90
17567;DHT22;8901;52.088;5.084;2022-08-19T20:01:42;22.50;99.90
17567;DHT22;8901;52.088;5.084;2022-08-19T20:04:11;22.40;99.90
17567;DHT22;8901;52.088;5.084;2022-08-19T20:06:38;22.50;99.90
17567;DHT22;8901;52.088;5.084;2022-08-19T20:09:05;22.60;99.90
17567;DHT22;8901;52.088;5.084;2022-08-19T20:11:56;22.70;99.90
17567;DHT22;8901;52.088;5.084;2022-08-19T20:14:32;22.80;99.90
17567;DHT22;8901;52.088;5.084;2022-08-19T20:17:16;22.80;99.90
17567;DHT22;8901;52.088;5.084;2022-08-19T20:19:44;22.90;99.90
17567;DHT22;8901;52.088;5.084;2022-08-19T20:22:11;22.80;99.90
17567;DHT22;8901;52.088;5.084;2022-08-19T20:24:38;22.70;99.90
17567;DHT22;8901;52.088;5.084;2022-08-19T20:27:08;22.50;99.90
17567;DHT22;8901;52.088;5.084;2022-08-19T20:29:35;22.50;99.90
17567;DHT22;8901;52.088;5.084;2022-08-19T20:32:03;22.60;99.90
17567;DHT22;8901;52.088;5.084;2022-08-19T20:34:30;22.70;99.90
17567;DHT22;8901;52.088;5.084;2022-08-19T20:36:58;22.70;99.90
17567;DHT22;8901;52.088;5.084;2022-08-19T20:39:49;22.40;99.90
17567;DHT22;8901;52.088;5.084;2022-08-19T20:42:17;22.60;99.90
17567;DHT22;8901;52.088;5.084;2022-08-19T20:44:45;22.60;99.90
17567;DHT22;8901;52.088;5.084;2022-08-19T20:47:11;22.70;99.90
17567;DHT22;8901;52.088;5.084;2022-08-19T20:49:38;22.60;99.90
17567;DHT22;8901;52.088;5.084;2022-08-19T20:52:05;22.80;99.90
17567;DHT22;8901;52.088;5.084;2022-08-19T20:54:32;22.80;99.90
17567;DHT22;8901;52.088;5.084;2022-08-19T20:56:59;22.80;99.90
17567;DHT22;8901;52.088;5.084;2022-08-19T20:59:29;22.70;99.90
17567;DHT22;8901;52.088;5.084;2022-08-19T21:01:56;22.70;99.90
17567;DHT22;8901;52.088;5.084;2022-08-19T21:04:23;22.70;99.90
17567;DHT22;8901;52.088;5.084;2022-08-19T21:06:50;22.50;99.90
17567;DHT22;8901;52.088;5.084;2022-08-19T21:09:17;22.30;99.90
17567;DHT22;8901;52.088;5.084;2022-08-19T21:11:44;21.90;99.90
17567;DHT22;8901;52.088;5.084;2022-08-19T21:14:11;21.90;99.90
17567;DHT22;8901;52.088;5.084;2022-08-19T21:16:39;22.20;99.90
17567;DHT22;8901;52.088;5.084;2022-08-19T21:19:07;22.30;99.90
17567;DHT22;8901;52.088;5.084;2022-08-19T21:21:34;22.40;99.90
17567;DHT22;8901;52.088;5.084;2022-08-19T21:24:02;22.20;99.90
17567;DHT22;8901;52.088;5.084;2022-08-19T21:26:29;22.20;99.90
17567;DHT22;8901;52.088;5.084;2022-08-19T21:28:56;22.30;99.90
17567;DHT22;8901;52.088;5.084;2022-08-19T21:31:22;22.30;99.90
17567;DHT22;8901;52.088;5.084;2022-08-19T21:33:51;22.30;99.90
17567;DHT22;8901;52.088;5.084;2022-08-19T21:36:18;22.10;99.90
17567;DHT22;8901;52.088;5.084;2022-08-19T21:38:45;22.10;99.90
17567;DHT22;8901;52.088;5.084;2022-08-19T21:41:12;21.90;99.90
17567;DHT22;8901;52.088;5.084;2022-08-19T21:43:41;21.90;99.90
17567;DHT22;8901;52.088;5.084;2022-08-19T21:46:09;21.90;99.90
17567;DHT22;8901;52.088;5.084;2022-08-19T21:48:36;22.00;99.90
17567;DHT22;8901;52.088;5.084;2022-08-19T21:51:05;22.00;99.90
17567;DHT22;8901;52.088;5.084;2022-08-19T21:53:32;22.00;99.90
17567;DHT22;8901;52.088;5.084;2022-08-19T21:55:59;22.00;99.90
17567;DHT22;8901;52.088;5.084;2022-08-19T21:58:25;22.00;99.90
17567;DHT22;8901;52.088;5.084;2022-08-19T22:00:52;22.10;99.90
17567;DHT22;8901;52.088;5.084;2022-08-19T22:03:19;22.10;99.90
17567;DHT22;8901;52.088;5.084;2022-08-19T22:05:46;22.00;99.90
17567;DHT22;8901;52.088;5.084;2022-08-19T22:08:15;22.00;99.90
17567;DHT22;8901;52.088;5.084;2022-08-19T22:10:41;22.00;99.90
17567;DHT22;8901;52.088;5.084;2022-08-19T22:13:08;22.10;99.90
17567;DHT22;8901;52.088;5.084;2022-08-19T22:15:35;22.10;99.90
17567;DHT22;8901;52.088;5.084;2022-08-19T22:18:02;22.00;99.90
17567;DHT22;8901;52.088;5.084;2022-08-19T22:20:30;22.10;99.90
17567;DHT22;8901;52.088;5.084;2022-08-19T22:22:59;22.10;99.90
17567;DHT22;8901;52.088;5.084;2022-08-19T22:25:31;22.10;99.90
17567;DHT22;8901;52.088;5.084;2022-08-19T22:27:59;22.10;99.90
17567;DHT22;8901;52.088;5.084;2022-08-19T22:30:26;22.10;99.90
17567;DHT22;8901;52.088;5.084;2022-08-19T22:32:55;22.10;99.90
17567;DHT22;8901;52.088;5.084;2022-08-19T22:35:27;21.90;99.90
17567;DHT22;8901;52.088;5.084;2022-08-19T22:37:56;22.00;99.90
17567;DHT22;8901;52.088;5.084;2022-08-19T22:40:24;22.10;99.90
17567;DHT22;8901;52.088;5.084;2022-08-19T22:42:57;22.20;99.90
17567;DHT22;8901;52.088;5.084;2022-08-19T22:45:27;22.10;99.90
17567;DHT22;8901;52.088;5.084;2022-08-19T22:47:54;22.10;99.90
17567;DHT22;8901;52.088;5.084;2022-08-19T22:50:22;22.20;99.90
17567;DHT22;8901;52.088;5.084;2022-08-19T22:52:54;22.20;99.90
17567;DHT22;8901;52.088;5.084;2022-08-19T22:55:22;22.20;99.90